sensor_id;sensor_type;location;lat;lon;timestamp;temperature;humidity
75961;SHT30;64644;48.914;2.254;2023-05-10T00:01:47;14.72;73.43
75961;SHT30;64644;48.914;2.254;2023-05-10T00:04:12;14.69;73.35
75961;SHT30;64644;48.914;2.254;2023-05-10T00:06:37;14.69;73.45
75961;SHT30;64644;48.914;2.254;2023-05-10T00:09:03;14.61;73.42
75961;SHT30;64644;48.914;2.254;2023-05-10T00:11:29;14.54;73.32
75961;SHT30;64644;48.914;2.254;2023-05-10T00:13:54;14.41;73.27
75961;SHT30;64644;48.914;2.254;2023-05-10T00:16:20;14.35;73.21
75961;SHT30;64644;48.914;2.254;2023-05-10T00:18:45;14.27;73.17
75961;SHT30;64644;48.914;2.254;2023-05-10T00:21:10;14.24;73.23
75961;SHT30;64644;48.914;2.254;2023-05-10T00:23:36;14.20;73.22
75961;SHT30;64644;48.914;2.254;2023-05-10T00:26:01;14.18;72.89
75961;SHT30;64644;48.914;2.254;2023-05-10T00:28:27;14.16;72.86
75961;SHT30;64644;48.914;2.254;2023-05-10T00:30:53;14.10;72.37
75961;SHT30;64644;48.914;2.254;2023-05-10T00:33:19;14.02;72.63
75961;SHT30;64644;48.914;2.254;2023-05-10T00:35:44;14.00;72.55
75961;SHT30;64644;48.914;2.254;2023-05-10T00:38:10;13.87;72.17
75961;SHT30;64644;48.914;2.254;2023-05-10T00:40:36;13.75;72.12
75961;SHT30;64644;48.914;2.254;2023-05-10T00:43:02;13.68;72.16
75961;SHT30;64644;48.914;2.254;2023-05-10T00:45:29;13.64;72.20
75961;SHT30;64644;48.914;2.254;2023-05-10T00:47:55;13.58;72.21
75961;SHT30;64644;48.914;2.254;2023-05-10T00:50:22;13.53;72.01
75961;SHT30;64644;48.914;2.254;2023-05-10T00:52:48;13.53;72.17
75961;SHT30;64644;48.914;2.254;2023-05-10T00:55:14;13.45;72.17
75961;SHT30;64644;48.914;2.254;2023-05-10T00:57:39;13.41;72.09
75961;SHT30;64644;48.914;2.254;2023-05-10T01:00:05;13.40;72.30
75961;SHT30;64644;48.914;2.254;2023-05-10T01:02:33;13.37;72.35
75961;SHT30;64644;48.914;2.254;2023-05-10T01:04:59;13.37;72.48
75961;SHT30;64644;48.914;2.254;2023-05-10T01:07:25;13.31;72.51
75961;SHT30;64644;48.914;2.254;2023-05-10T01:09:50;13.31;72.57
75961;SHT30;64644;48.914;2.254;2023-05-10T01:12:16;13.26;72.77
75961;SHT30;64644;48.914;2.254;2023-05-10T01:14:41;13.23;72.69
75961;SHT30;64644;48.914;2.254;2023-05-10T01:17:07;13.23;72.81
75961;SHT30;64644;48.914;2.254;2023-05-10T01:19:35;13.20;72.74
75961;SHT30;64644;48.914;2.254;2023-05-10T01:30:52;13.16;73.11
75961;SHT30;64644;48.914;2.254;2023-05-10T01:33:43;13.17;73.22
75961;SHT30;64644;48.914;2.254;2023-05-10T01:36:28;13.19;73.13
75961;SHT30;64644;48.914;2.254;2023-05-10T01:47:10;13.14;72.97
75961;SHT30;64644;48.914;2.254;2023-05-10T01:49:43;13.14;73.06
75961;SHT30;64644;48.914;2.254;2023-05-10T01:52:12;13.14;73.19
75961;SHT30;64644;48.914;2.254;2023-05-10T01:54:42;13.14;73.03
75961;SHT30;64644;48.914;2.254;2023-05-10T01:57:10;13.14;73.07
75961;SHT30;64644;48.914;2.254;2023-05-10T01:59:40;13.14;73.07
75961;SHT30;64644;48.914;2.254;2023-05-10T02:02:08;13.11;73.14
75961;SHT30;64644;48.914;2.254;2023-05-10T02:04:38;13.11;73.16
75961;SHT30;64644;48.914;2.254;2023-05-10T02:07:05;13.09;73.17
75961;SHT30;64644;48.914;2.254;2023-05-10T02:09:32;13.09;73.05
75961;SHT30;64644;48.914;2.254;2023-05-10T02:11:59;13.06;73.12
75961;SHT30;64644;48.914;2.254;2023-05-10T02:14:29;13.04;73.10
75961;SHT30;64644;48.914;2.254;2023-05-10T02:16:56;13.03;73.08
75961;SHT30;64644;48.914;2.254;2023-05-10T02:19:24;12.97;72.93
75961;SHT30;64644;48.914;2.254;2023-05-10T02:21:51;12.93;72.98
75961;SHT30;64644;48.914;2.254;2023-05-10T02:24:17;12.89;73.20
75961;SHT30;64644;48.914;2.254;2023-05-10T02:26:44;12.89;73.14
75961;SHT30;64644;48.914;2.254;2023-05-10T02:29:11;12.89;73.30
75961;SHT30;64644;48.914;2.254;2023-05-10T02:31:37;12.89;73.18
75961;SHT30;64644;48.914;2.254;2023-05-10T02:34:04;12.85;73.25
75961;SHT30;64644;48.914;2.254;2023-05-10T02:36:30;12.89;73.18
75961;SHT30;64644;48.914;2.254;2023-05-10T02:38:58;12.88;73.17
75961;SHT30;64644;48.914;2.254;2023-05-10T02:41:27;12.88;73.11
75961;SHT30;64644;48.914;2.254;2023-05-10T02:43:57;12.91;73.06
75961;SHT30;64644;48.914;2.254;2023-05-10T02:46:24;12.88;73.22
75961;SHT30;64644;48.914;2.254;2023-05-10T02:48:50;12.91;73.19
75961;SHT30;64644;48.914;2.254;2023-05-10T02:51:16;12.93;73.37
75961;SHT30;64644;48.914;2.254;2023-05-10T02:53:46;12.97;73.22
75961;SHT30;64644;48.914;2.254;2023-05-10T02:56:30;12.99;73.21
75961;SHT30;64644;48.914;2.254;2023-05-10T02:58:57;13.02;73.13
75961;SHT30;64644;48.914;2.254;2023-05-10T03:01:23;13.09;73.03
75961;SHT30;64644;48.914;2.254;2023-05-10T03:03:48;13.04;72.78
75961;SHT30;64644;48.914;2.254;2023-05-10T03:06:14;13.02;72.90
75961;SHT30;64644;48.914;2.254;2023-05-10T03:08:39;13.04;72.96
75961;SHT30;64644;48.914;2.254;2023-05-10T03:16:44;13.09;72.90
75961;SHT30;64644;48.914;2.254;2023-05-10T03:19:22;13.07;72.82
75961;SHT30;64644;48.914;2.254;2023-05-10T03:21:52;13.07;72.93
75961;SHT30;64644;48.914;2.254;2023-05-10T03:24:20;13.09;72.88
75961;SHT30;64644;48.914;2.254;2023-05-10T03:26:47;13.06;72.96
75961;SHT30;64644;48.914;2.254;2023-05-10T03:29:14;13.07;72.97
75961;SHT30;64644;48.914;2.254;2023-05-10T03:31:40;13.07;73.00
75961;SHT30;64644;48.914;2.254;2023-05-10T03:34:06;13.09;72.96
75961;SHT30;64644;48.914;2.254;2023-05-10T03:36:32;13.11;73.10
75961;SHT30;64644;48.914;2.254;2023-05-10T03:38:57;13.10;73.06
75961;SHT30;64644;48.914;2.254;2023-05-10T03:41:23;13.10;73.22
75961;SHT30;64644;48.914;2.254;2023-05-10T03:43:48;13.06;73.29
75961;SHT30;64644;48.914;2.254;2023-05-10T03:46:14;13.04;73.54
75961;SHT30;64644;48.914;2.254;2023-05-10T03:48:39;13.04;73.61
75961;SHT30;64644;48.914;2.254;2023-05-10T03:51:05;13.06;73.65
75961;SHT30;64644;48.914;2.254;2023-05-10T03:53:30;13.10;73.64
75961;SHT30;64644;48.914;2.254;2023-05-10T03:55:55;13.06;73.53
75961;SHT30;64644;48.914;2.254;2023-05-10T03:58:21;13.03;73.66
75961;SHT30;64644;48.914;2.254;2023-05-10T04:00:47;13.03;73.73
75961;SHT30;64644;48.914;2.254;2023-05-10T04:03:12;13.02;73.75
75961;SHT30;64644;48.914;2.254;2023-05-10T04:05:38;13.02;73.91
75961;SHT30;64644;48.914;2.254;2023-05-10T04:08:04;13.00;73.79
75961;SHT30;64644;48.914;2.254;2023-05-10T04:10:30;13.03;73.98
75961;SHT30;64644;48.914;2.254;2023-05-10T04:12:56;13.02;74.04
75961;SHT30;64644;48.914;2.254;2023-05-10T04:15:21;13.02;74.11
75961;SHT30;64644;48.914;2.254;2023-05-10T04:17:47;12.99;74.40
75961;SHT30;64644;48.914;2.254;2023-05-10T04:20:12;13.00;74.35
75961;SHT30;64644;48.914;2.254;2023-05-10T04:22:38;13.02;74.39
75961;SHT30;64644;48.914;2.254;2023-05-10T04:25:04;13.03;74.58
75961;SHT30;64644;48.914;2.254;2023-05-10T04:27:30;13.07;74.35
75961;SHT30;64644;48.914;2.254;2023-05-10T04:29:56;13.07;74.48
75961;SHT30;64644;48.914;2.254;2023-05-10T04:32:21;13.09;74.41
75961;SHT30;64644;48.914;2.254;2023-05-10T04:34:47;13.07;74.63
75961;SHT30;64644;48.914;2.254;2023-05-10T04:37:12;13.10;74.48
75961;SHT30;64644;48.914;2.254;2023-05-10T04:39:37;13.14;74.72
75961;SHT30;64644;48.914;2.254;2023-05-10T04:42:03;13.16;74.91
75961;SHT30;64644;48.914;2.254;2023-05-10T04:44:30;13.17;74.92
75961;SHT30;64644;48.914;2.254;2023-05-10T04:46:56;13.19;74.72
75961;SHT30;64644;48.914;2.254;2023-05-10T04:49:21;13.16;74.80
75961;SHT30;64644;48.914;2.254;2023-05-10T04:51:46;13.17;75.25
75961;SHT30;64644;48.914;2.254;2023-05-10T04:54:12;13.19;75.10
75961;SHT30;64644;48.914;2.254;2023-05-10T04:56:37;13.19;75.11
75961;SHT30;64644;48.914;2.254;2023-05-10T04:59:03;13.16;75.30
75961;SHT30;64644;48.914;2.254;2023-05-10T05:01:28;13.19;75.44
75961;SHT30;64644;48.914;2.254;2023-05-10T05:03:54;13.19;75.88
75961;SHT30;64644;48.914;2.254;2023-05-10T05:06:19;13.26;75.81
75961;SHT30;64644;48.914;2.254;2023-05-10T05:08:46;13.28;75.35
75961;SHT30;64644;48.914;2.254;2023-05-10T05:11:11;13.26;75.49
75961;SHT30;64644;48.914;2.254;2023-05-10T05:13:37;13.28;75.45
75961;SHT30;64644;48.914;2.254;2023-05-10T05:16:02;13.27;75.68
75961;SHT30;64644;48.914;2.254;2023-05-10T05:18:28;13.24;75.65
75961;SHT30;64644;48.914;2.254;2023-05-10T05:20:53;13.26;75.75
75961;SHT30;64644;48.914;2.254;2023-05-10T05:23:18;13.26;75.66
75961;SHT30;64644;48.914;2.254;2023-05-10T05:25:46;13.31;75.80
75961;SHT30;64644;48.914;2.254;2023-05-10T05:28:11;13.30;76.02
75961;SHT30;64644;48.914;2.254;2023-05-10T05:30:36;13.36;76.05
75961;SHT30;64644;48.914;2.254;2023-05-10T05:33:02;13.40;76.07
75961;SHT30;64644;48.914;2.254;2023-05-10T05:35:27;13.43;76.01
75961;SHT30;64644;48.914;2.254;2023-05-10T05:37:52;13.47;75.90
75961;SHT30;64644;48.914;2.254;2023-05-10T05:40:18;13.47;75.86
75961;SHT30;64644;48.914;2.254;2023-05-10T05:42:43;13.45;75.90
75961;SHT30;64644;48.914;2.254;2023-05-10T05:45:09;13.48;75.90
75961;SHT30;64644;48.914;2.254;2023-05-10T05:47:38;13.53;75.68
75961;SHT30;64644;48.914;2.254;2023-05-10T05:50:04;13.51;75.68
75961;SHT30;64644;48.914;2.254;2023-05-10T05:52:30;13.53;76.08
75961;SHT30;64644;48.914;2.254;2023-05-10T05:54:55;13.53;76.32
75961;SHT30;64644;48.914;2.254;2023-05-10T05:57:20;13.54;76.18
75961;SHT30;64644;48.914;2.254;2023-05-10T05:59:46;13.58;76.53
75961;SHT30;64644;48.914;2.254;2023-05-10T06:02:11;13.64;76.09
75961;SHT30;64644;48.914;2.254;2023-05-10T06:04:37;13.65;76.46
75961;SHT30;64644;48.914;2.254;2023-05-10T06:07:02;13.69;76.84
75961;SHT30;64644;48.914;2.254;2023-05-10T06:09:27;13.72;76.73
75961;SHT30;64644;48.914;2.254;2023-05-10T06:11:53;13.69;76.47
75961;SHT30;64644;48.914;2.254;2023-05-10T06:14:20;13.68;77.03
75961;SHT30;64644;48.914;2.254;2023-05-10T06:16:45;13.65;76.92
75961;SHT30;64644;48.914;2.254;2023-05-10T06:19:11;13.69;77.05
75961;SHT30;64644;48.914;2.254;2023-05-10T06:21:36;13.66;77.05
75961;SHT30;64644;48.914;2.254;2023-05-10T06:24:02;13.69;77.51
75961;SHT30;64644;48.914;2.254;2023-05-10T06:26:28;13.72;76.90
75961;SHT30;64644;48.914;2.254;2023-05-10T06:28:53;13.75;77.05
75961;SHT30;64644;48.914;2.254;2023-05-10T06:31:18;13.78;77.38
75961;SHT30;64644;48.914;2.254;2023-05-10T06:33:44;13.78;77.23
75961;SHT30;64644;48.914;2.254;2023-05-10T06:36:09;13.81;77.23
75961;SHT30;64644;48.914;2.254;2023-05-10T06:38:35;13.83;77.17
75961;SHT30;64644;48.914;2.254;2023-05-10T06:41:00;13.89;77.21
75961;SHT30;64644;48.914;2.254;2023-05-10T06:43:25;13.92;77.40
75961;SHT30;64644;48.914;2.254;2023-05-10T06:45:51;13.95;77.14
75961;SHT30;64644;48.914;2.254;2023-05-10T06:48:17;13.98;77.11
75961;SHT30;64644;48.914;2.254;2023-05-10T06:50:42;13.96;76.83
75961;SHT30;64644;48.914;2.254;2023-05-10T06:53:07;13.99;77.03
75961;SHT30;64644;48.914;2.254;2023-05-10T06:55:33;14.00;77.36
75961;SHT30;64644;48.914;2.254;2023-05-10T06:57:58;14.03;77.17
75961;SHT30;64644;48.914;2.254;2023-05-10T07:00:24;14.06;77.02
75961;SHT30;64644;48.914;2.254;2023-05-10T07:02:49;14.07;76.85
75961;SHT30;64644;48.914;2.254;2023-05-10T07:05:14;14.07;77.16
75961;SHT30;64644;48.914;2.254;2023-05-10T07:07:40;14.09;77.16
75961;SHT30;64644;48.914;2.254;2023-05-10T07:10:06;14.09;77.26
75961;SHT30;64644;48.914;2.254;2023-05-10T07:12:32;14.12;77.47
75961;SHT30;64644;48.914;2.254;2023-05-10T07:14:57;14.16;77.23
75961;SHT30;64644;48.914;2.254;2023-05-10T07:17:23;14.16;77.23
75961;SHT30;64644;48.914;2.254;2023-05-10T07:19:48;14.18;77.49
75961;SHT30;64644;48.914;2.254;2023-05-10T07:22:14;14.23;77.57
75961;SHT30;64644;48.914;2.254;2023-05-10T07:24:40;14.26;77.37
75961;SHT30;64644;48.914;2.254;2023-05-10T07:27:06;14.30;77.60
75961;SHT30;64644;48.914;2.254;2023-05-10T07:29:31;14.31;77.25
75961;SHT30;64644;48.914;2.254;2023-05-10T07:31:57;14.33;76.97
75961;SHT30;64644;48.914;2.254;2023-05-10T07:34:22;14.34;77.09
75961;SHT30;64644;48.914;2.254;2023-05-10T07:36:47;14.34;77.08
75961;SHT30;64644;48.914;2.254;2023-05-10T07:39:13;14.35;77.11
75961;SHT30;64644;48.914;2.254;2023-05-10T07:41:38;14.34;77.35
75961;SHT30;64644;48.914;2.254;2023-05-10T07:44:04;14.35;77.31
75961;SHT30;64644;48.914;2.254;2023-05-10T07:46:29;14.40;77.48
75961;SHT30;64644;48.914;2.254;2023-05-10T07:48:55;14.41;77.32
75961;SHT30;64644;48.914;2.254;2023-05-10T07:51:21;14.40;77.49
75961;SHT30;64644;48.914;2.254;2023-05-10T07:53:46;14.38;77.35
75961;SHT30;64644;48.914;2.254;2023-05-10T07:56:24;14.37;77.54
75961;SHT30;64644;48.914;2.254;2023-05-10T07:58:51;14.38;77.42
75961;SHT30;64644;48.914;2.254;2023-05-10T08:01:16;14.40;77.44
75961;SHT30;64644;48.914;2.254;2023-05-10T08:03:41;14.40;77.46
75961;SHT30;64644;48.914;2.254;2023-05-10T08:06:07;14.40;77.44
75961;SHT30;64644;48.914;2.254;2023-05-10T08:08:32;14.38;77.49
75961;SHT30;64644;48.914;2.254;2023-05-10T08:10:57;14.41;77.49
75961;SHT30;64644;48.914;2.254;2023-05-10T08:13:23;14.41;77.63
75961;SHT30;64644;48.914;2.254;2023-05-10T08:15:48;14.44;77.48
75961;SHT30;64644;48.914;2.254;2023-05-10T08:18:13;14.44;77.48
75961;SHT30;64644;48.914;2.254;2023-05-10T08:20:39;14.46;77.52
75961;SHT30;64644;48.914;2.254;2023-05-10T08:23:04;14.45;77.34
75961;SHT30;64644;48.914;2.254;2023-05-10T08:25:29;14.44;77.56
75961;SHT30;64644;48.914;2.254;2023-05-10T08:27:55;14.49;77.64
75961;SHT30;64644;48.914;2.254;2023-05-10T08:30:20;14.51;77.64
75961;SHT30;64644;48.914;2.254;2023-05-10T08:32:45;14.52;77.60
75961;SHT30;64644;48.914;2.254;2023-05-10T08:35:11;14.52;77.67
75961;SHT30;64644;48.914;2.254;2023-05-10T08:37:36;14.58;77.49
75961;SHT30;64644;48.914;2.254;2023-05-10T08:40:02;14.57;77.47
75961;SHT30;64644;48.914;2.254;2023-05-10T08:42:30;14.60;77.56
75961;SHT30;64644;48.914;2.254;2023-05-10T08:44:57;14.64;77.85
75961;SHT30;64644;48.914;2.254;2023-05-10T08:47:25;14.67;77.45
75961;SHT30;64644;48.914;2.254;2023-05-10T08:49:51;14.75;77.72
75961;SHT30;64644;48.914;2.254;2023-05-10T08:52:18;14.82;77.75
75961;SHT30;64644;48.914;2.254;2023-05-10T08:54:43;14.87;77.56
75961;SHT30;64644;48.914;2.254;2023-05-10T08:57:10;14.92;77.87
75961;SHT30;64644;48.914;2.254;2023-05-10T08:59:35;15.00;78.03
75961;SHT30;64644;48.914;2.254;2023-05-10T09:02:04;15.06;77.50
75961;SHT30;64644;48.914;2.254;2023-05-10T09:04:30;15.11;77.42
75961;SHT30;64644;48.914;2.254;2023-05-10T09:06:56;15.14;77.43
75961;SHT30;64644;48.914;2.254;2023-05-10T09:09:23;15.19;77.20
75961;SHT30;64644;48.914;2.254;2023-05-10T09:11:50;15.20;77.11
75961;SHT30;64644;48.914;2.254;2023-05-10T09:14:16;15.23;76.95
75961;SHT30;64644;48.914;2.254;2023-05-10T09:16:42;15.31;76.71
75961;SHT30;64644;48.914;2.254;2023-05-10T09:19:08;15.27;76.62
75961;SHT30;64644;48.914;2.254;2023-05-10T09:21:35;15.30;76.57
75961;SHT30;64644;48.914;2.254;2023-05-10T09:24:04;15.32;76.37
75961;SHT30;64644;48.914;2.254;2023-05-10T09:26:30;15.32;76.17
75961;SHT30;64644;48.914;2.254;2023-05-10T09:28:58;15.35;76.14
75961;SHT30;64644;48.914;2.254;2023-05-10T09:31:23;15.34;76.07
75961;SHT30;64644;48.914;2.254;2023-05-10T09:33:51;15.35;76.14
75961;SHT30;64644;48.914;2.254;2023-05-10T09:36:16;15.37;76.20
75961;SHT30;64644;48.914;2.254;2023-05-10T09:38:49;15.41;76.10
75961;SHT30;64644;48.914;2.254;2023-05-10T09:41:17;15.41;75.91
75961;SHT30;64644;48.914;2.254;2023-05-10T09:43:43;15.45;75.80
75961;SHT30;64644;48.914;2.254;2023-05-10T09:46:09;15.42;75.67
75961;SHT30;64644;48.914;2.254;2023-05-10T09:48:44;15.42;75.67
75961;SHT30;64644;48.914;2.254;2023-05-10T09:51:15;15.45;75.54
75961;SHT30;64644;48.914;2.254;2023-05-10T09:53:43;15.44;75.04
75961;SHT30;64644;48.914;2.254;2023-05-10T09:56:08;15.42;74.76
75961;SHT30;64644;48.914;2.254;2023-05-10T09:58:36;15.44;74.99
75961;SHT30;64644;48.914;2.254;2023-05-10T10:01:03;15.45;75.01
75961;SHT30;64644;48.914;2.254;2023-05-10T10:03:28;15.45;74.94
75961;SHT30;64644;48.914;2.254;2023-05-10T10:05:55;15.48;75.06
75961;SHT30;64644;48.914;2.254;2023-05-10T10:08:21;15.51;75.03
75961;SHT30;64644;48.914;2.254;2023-05-10T10:10:47;15.51;74.99
75961;SHT30;64644;48.914;2.254;2023-05-10T10:13:13;15.52;74.95
75961;SHT30;64644;48.914;2.254;2023-05-10T10:15:39;15.55;74.81
75961;SHT30;64644;48.914;2.254;2023-05-10T10:18:05;15.57;74.81
75961;SHT30;64644;48.914;2.254;2023-05-10T10:20:30;15.57;74.62
75961;SHT30;64644;48.914;2.254;2023-05-10T10:22:56;15.59;74.67
75961;SHT30;64644;48.914;2.254;2023-05-10T10:25:21;15.62;74.42
75961;SHT30;64644;48.914;2.254;2023-05-10T10:35:28;15.76;74.38
75961;SHT30;64644;48.914;2.254;2023-05-10T10:37:54;15.81;74.12
75961;SHT30;64644;48.914;2.254;2023-05-10T10:40:38;15.87;73.84
75961;SHT30;64644;48.914;2.254;2023-05-10T10:43:23;15.93;73.88
75961;SHT30;64644;48.914;2.254;2023-05-10T10:46:14;15.97;73.51
75961;SHT30;64644;48.914;2.254;2023-05-10T10:48:41;15.99;72.99
75961;SHT30;64644;48.914;2.254;2023-05-10T10:51:06;16.02;72.78
75961;SHT30;64644;48.914;2.254;2023-05-10T10:53:32;16.06;72.75
75961;SHT30;64644;48.914;2.254;2023-05-10T10:56:08;16.11;72.49
75961;SHT30;64644;48.914;2.254;2023-05-10T10:58:35;16.14;72.77
75961;SHT30;64644;48.914;2.254;2023-05-10T11:01:10;16.22;72.65
75961;SHT30;64644;48.914;2.254;2023-05-10T11:03:35;16.21;72.34
75961;SHT30;64644;48.914;2.254;2023-05-10T11:06:01;16.27;72.36
75961;SHT30;64644;48.914;2.254;2023-05-10T11:08:30;16.30;72.13
75961;SHT30;64644;48.914;2.254;2023-05-10T11:13:38;16.30;71.41
75961;SHT30;64644;48.914;2.254;2023-05-10T11:16:17;16.34;71.24
75961;SHT30;64644;48.914;2.254;2023-05-10T11:18:54;16.41;71.36
75961;SHT30;64644;48.914;2.254;2023-05-10T11:21:21;16.45;70.89
75961;SHT30;64644;48.914;2.254;2023-05-10T11:23:49;16.52;70.75
75961;SHT30;64644;48.914;2.254;2023-05-10T11:26:15;16.62;71.33
75961;SHT30;64644;48.914;2.254;2023-05-10T11:28:42;16.76;70.41
75961;SHT30;64644;48.914;2.254;2023-05-10T11:31:07;16.89;70.38
75961;SHT30;64644;48.914;2.254;2023-05-10T11:33:45;17.00;70.15
75961;SHT30;64644;48.914;2.254;2023-05-10T11:36:18;17.09;69.58
75961;SHT30;64644;48.914;2.254;2023-05-10T11:38:45;17.17;69.89
75961;SHT30;64644;48.914;2.254;2023-05-10T11:41:11;17.30;69.14
75961;SHT30;64644;48.914;2.254;2023-05-10T11:43:38;17.38;68.71
75961;SHT30;64644;48.914;2.254;2023-05-10T11:46:08;17.46;69.15
75961;SHT30;64644;48.914;2.254;2023-05-10T11:48:34;17.55;67.48
75961;SHT30;64644;48.914;2.254;2023-05-10T11:51:01;17.61;67.10
75961;SHT30;64644;48.914;2.254;2023-05-10T11:53:27;17.68;67.15
75961;SHT30;64644;48.914;2.254;2023-05-10T11:55:53;17.78;68.65
75961;SHT30;64644;48.914;2.254;2023-05-10T11:58:18;17.87;66.19
75961;SHT30;64644;48.914;2.254;2023-05-10T12:00:44;17.96;67.13
75961;SHT30;64644;48.914;2.254;2023-05-10T12:03:10;18.01;66.95
75961;SHT30;64644;48.914;2.254;2023-05-10T12:05:36;18.04;65.65
75961;SHT30;64644;48.914;2.254;2023-05-10T12:08:15;18.11;64.90
75961;SHT30;64644;48.914;2.254;2023-05-10T12:10:41;18.16;65.56
75961;SHT30;64644;48.914;2.254;2023-05-10T12:13:11;18.23;65.28
75961;SHT30;64644;48.914;2.254;2023-05-10T12:15:37;18.33;64.90
75961;SHT30;64644;48.914;2.254;2023-05-10T12:18:03;18.38;63.97
75961;SHT30;64644;48.914;2.254;2023-05-10T12:20:28;18.41;64.52
75961;SHT30;64644;48.914;2.254;2023-05-10T12:22:56;18.45;64.43
75961;SHT30;64644;48.914;2.254;2023-05-10T12:25:23;18.47;65.42
75961;SHT30;64644;48.914;2.254;2023-05-10T12:27:53;18.47;63.69
75961;SHT30;64644;48.914;2.254;2023-05-10T12:30:24;18.53;63.58
75961;SHT30;64644;48.914;2.254;2023-05-10T12:32:50;18.68;63.50
75961;SHT30;64644;48.914;2.254;2023-05-10T12:35:15;18.85;63.22
75961;SHT30;64644;48.914;2.254;2023-05-10T12:37:42;18.96;60.56
75961;SHT30;64644;48.914;2.254;2023-05-10T12:40:09;19.02;63.34
75961;SHT30;64644;48.914;2.254;2023-05-10T12:42:36;19.03;62.85
75961;SHT30;64644;48.914;2.254;2023-05-10T12:45:03;19.04;61.82
75961;SHT30;64644;48.914;2.254;2023-05-10T12:47:29;19.02;61.21
75961;SHT30;64644;48.914;2.254;2023-05-10T12:49:54;18.95;60.34
75961;SHT30;64644;48.914;2.254;2023-05-10T12:52:19;18.92;62.69
75961;SHT30;64644;48.914;2.254;2023-05-10T12:54:45;18.89;62.80
75961;SHT30;64644;48.914;2.254;2023-05-10T12:57:11;18.87;63.59
75961;SHT30;64644;48.914;2.254;2023-05-10T12:59:36;18.89;64.16
75961;SHT30;64644;48.914;2.254;2023-05-10T13:02:01;18.89;63.56
75961;SHT30;64644;48.914;2.254;2023-05-10T13:04:27;18.95;63.30
75961;SHT30;64644;48.914;2.254;2023-05-10T13:06:52;19.04;63.65
75961;SHT30;64644;48.914;2.254;2023-05-10T13:09:17;19.14;62.28
75961;SHT30;64644;48.914;2.254;2023-05-10T13:11:43;19.27;62.37
75961;SHT30;64644;48.914;2.254;2023-05-10T13:14:08;19.34;61.90
75961;SHT30;64644;48.914;2.254;2023-05-10T13:16:33;19.42;62.68
75961;SHT30;64644;48.914;2.254;2023-05-10T13:18:59;19.47;62.78
75961;SHT30;64644;48.914;2.254;2023-05-10T13:21:24;19.47;62.82
75961;SHT30;64644;48.914;2.254;2023-05-10T13:23:50;19.45;62.94
75961;SHT30;64644;48.914;2.254;2023-05-10T13:26:15;19.39;63.84
75961;SHT30;64644;48.914;2.254;2023-05-10T13:28:41;19.34;64.64
75961;SHT30;64644;48.914;2.254;2023-05-10T13:31:06;19.27;65.50
75961;SHT30;64644;48.914;2.254;2023-05-10T13:33:32;19.20;65.94
75961;SHT30;64644;48.914;2.254;2023-05-10T13:35:57;19.11;66.56
75961;SHT30;64644;48.914;2.254;2023-05-10T13:38:22;19.07;66.84
75961;SHT30;64644;48.914;2.254;2023-05-10T13:40:48;19.00;67.12
75961;SHT30;64644;48.914;2.254;2023-05-10T13:43:17;18.97;67.37
75961;SHT30;64644;48.914;2.254;2023-05-10T13:45:42;18.95;67.61
75961;SHT30;64644;48.914;2.254;2023-05-10T13:48:08;18.89;67.54
75961;SHT30;64644;48.914;2.254;2023-05-10T13:50:33;18.85;67.44
75961;SHT30;64644;48.914;2.254;2023-05-10T13:52:58;18.79;66.75
75961;SHT30;64644;48.914;2.254;2023-05-10T13:55:23;18.85;68.05
75961;SHT30;64644;48.914;2.254;2023-05-10T13:57:49;18.96;67.86
75961;SHT30;64644;48.914;2.254;2023-05-10T14:00:14;19.07;67.23
75961;SHT30;64644;48.914;2.254;2023-05-10T14:02:40;19.18;63.84
75961;SHT30;64644;48.914;2.254;2023-05-10T14:05:05;19.34;64.16
75961;SHT30;64644;48.914;2.254;2023-05-10T14:07:31;19.48;64.66
75961;SHT30;64644;48.914;2.254;2023-05-10T14:09:56;19.59;65.18
75961;SHT30;64644;48.914;2.254;2023-05-10T14:12:21;19.70;65.02
75961;SHT30;64644;48.914;2.254;2023-05-10T14:14:47;19.89;64.96
75961;SHT30;64644;48.914;2.254;2023-05-10T14:17:12;20.17;62.03
75961;SHT30;64644;48.914;2.254;2023-05-10T14:19:37;20.47;60.18
75961;SHT30;64644;48.914;2.254;2023-05-10T14:22:03;20.80;60.29
75961;SHT30;64644;48.914;2.254;2023-05-10T14:24:29;21.15;58.65
75961;SHT30;64644;48.914;2.254;2023-05-10T14:26:54;21.37;61.49
75961;SHT30;64644;48.914;2.254;2023-05-10T14:29:20;21.55;60.01
75961;SHT30;64644;48.914;2.254;2023-05-10T14:31:46;21.79;58.87
75961;SHT30;64644;48.914;2.254;2023-05-10T14:34:11;22.01;55.19
75961;SHT30;64644;48.914;2.254;2023-05-10T14:36:36;22.22;56.41
75961;SHT30;64644;48.914;2.254;2023-05-10T14:39:02;22.42;55.87
75961;SHT30;64644;48.914;2.254;2023-05-10T14:41:28;22.41;54.61
75961;SHT30;64644;48.914;2.254;2023-05-10T14:43:53;22.37;54.56
75961;SHT30;64644;48.914;2.254;2023-05-10T14:46:18;22.27;56.59
75961;SHT30;64644;48.914;2.254;2023-05-10T14:48:44;22.30;56.87
75961;SHT30;64644;48.914;2.254;2023-05-10T14:51:09;22.30;54.00
75961;SHT30;64644;48.914;2.254;2023-05-10T14:53:35;22.28;55.96
75961;SHT30;64644;48.914;2.254;2023-05-10T14:56:00;22.31;55.72
75961;SHT30;64644;48.914;2.254;2023-05-10T14:58:29;22.24;57.48
75961;SHT30;64644;48.914;2.254;2023-05-10T15:00:55;22.18;57.28
75961;SHT30;64644;48.914;2.254;2023-05-10T15:03:21;22.03;57.02
75961;SHT30;64644;48.914;2.254;2023-05-10T15:05:47;21.93;54.94
75961;SHT30;64644;48.914;2.254;2023-05-10T15:08:12;21.73;53.96
75961;SHT30;64644;48.914;2.254;2023-05-10T15:10:38;21.59;52.89
75961;SHT30;64644;48.914;2.254;2023-05-10T15:13:04;21.41;53.73
75961;SHT30;64644;48.914;2.254;2023-05-10T15:15:29;21.34;56.09
75961;SHT30;64644;48.914;2.254;2023-05-10T15:17:55;21.25;56.17
75961;SHT30;64644;48.914;2.254;2023-05-10T15:20:21;21.12;54.07
75961;SHT30;64644;48.914;2.254;2023-05-10T15:22:46;21.00;54.12
75961;SHT30;64644;48.914;2.254;2023-05-10T15:25:13;20.86;54.94
75961;SHT30;64644;48.914;2.254;2023-05-10T15:27:38;20.79;56.98
75961;SHT30;64644;48.914;2.254;2023-05-10T15:30:04;20.68;55.80
75961;SHT30;64644;48.914;2.254;2023-05-10T15:32:29;20.61;54.23
75961;SHT30;64644;48.914;2.254;2023-05-10T15:34:55;20.52;54.92
75961;SHT30;64644;48.914;2.254;2023-05-10T15:37:20;20.45;55.67
75961;SHT30;64644;48.914;2.254;2023-05-10T15:39:47;20.37;55.14
75961;SHT30;64644;48.914;2.254;2023-05-10T15:42:13;20.34;56.00
75961;SHT30;64644;48.914;2.254;2023-05-10T15:44:38;20.27;57.44
75961;SHT30;64644;48.914;2.254;2023-05-10T15:47:04;20.28;57.16
75961;SHT30;64644;48.914;2.254;2023-05-10T15:49:30;20.20;56.37
75961;SHT30;64644;48.914;2.254;2023-05-10T15:51:55;20.11;55.51
75961;SHT30;64644;48.914;2.254;2023-05-10T15:54:21;20.06;54.45
75961;SHT30;64644;48.914;2.254;2023-05-10T15:56:46;19.98;53.68
75961;SHT30;64644;48.914;2.254;2023-05-10T15:59:12;19.96;53.89